createdAt,value
2022-10-05T00:01:00.269Z,5.35
2022-10-05T00:06:02.511Z,4.95
2022-10-05T00:11:08.411Z,4.50
2022-10-05T00:16:10.485Z,4.45
2022-10-05T00:21:22.679Z,4.33
2022-10-05T00:26:26.727Z,4.25
2022-10-05T00:31:32.671Z,4.40
2022-10-05T00:36:34.745Z,4.50
2022-10-05T00:41:40.173Z,4.90
2022-10-05T00:46:56.178Z,5.30
2022-10-05T00:52:38.331Z,4.95
2022-10-05T00:58:02.189Z,5.10
2022-10-05T01:08:35.781Z,4.65
2022-10-05T01:13:51.447Z,4.85
2022-10-05T01:19:17.722Z,3.50
2022-10-05T01:24:48.960Z,4.20
2022-10-05T01:30:05.340Z,4.30
2022-10-05T01:35:34.668Z,4.23
2022-10-05T01:41:05.693Z,3.75
2022-10-05T01:46:13.731Z,3.23
2022-10-05T01:51:16.138Z,3.40
2022-10-05T01:57:00.210Z,3.30
2022-10-05T02:07:43.657Z,3.43
2022-10-05T02:12:48.902Z,3.43
2022-10-05T02:17:58.961Z,3.60
2022-10-05T02:23:07.826Z,2.75
2022-10-05T02:28:22.626Z,3.25
2022-10-05T02:33:29.223Z,3.40
2022-10-05T02:38:41.007Z,3.50
2022-10-05T02:44:06.405Z,2.93
2022-10-05T02:49:18.454Z,2.20
2022-10-05T02:54:29.729Z,3.13
2022-10-05T02:59:40.442Z,2.50
2022-10-05T03:05:17.727Z,2.60
2022-10-05T03:10:41.988Z,3.30
2022-10-05T03:16:11.559Z,2.70
2022-10-05T03:21:14.119Z,3.55
2022-10-05T03:26:27.295Z,3.45
2022-10-05T03:31:37.874Z,3.53
2022-10-05T03:37:03.057Z,3.60
2022-10-05T03:42:27.740Z,4.85
2022-10-05T03:47:46.661Z,3.60
2022-10-05T03:52:54.694Z,5.70
2022-10-05T03:58:01.362Z,4.00
2022-10-05T04:03:19.109Z,3.25
2022-10-05T04:08:29.295Z,4.13
2022-10-05T04:13:37.495Z,5.50
2022-10-05T04:18:45.977Z,4.90
2022-10-05T04:24:06.661Z,5.20
2022-10-05T04:29:44.448Z,4.85
2022-10-05T04:35:08.513Z,4.50
2022-10-05T04:40:45.121Z,3.45
2022-10-05T04:46:13.797Z,3.95
2022-10-05T04:51:40.994Z,3.65
2022-10-05T04:56:50.989Z,3.80
2022-10-05T05:02:11.625Z,6.35
2022-10-05T05:07:31.988Z,5.55
2022-10-05T05:13:14.446Z,5.30
2022-10-05T05:18:31.622Z,5.85
2022-10-05T05:23:40.029Z,4.70
2022-10-05T05:28:58.540Z,4.00
2022-10-05T05:34:21.715Z,4.30
2022-10-05T05:39:28.525Z,5.20
2022-10-05T05:44:40.967Z,5.20
2022-10-05T05:50:18.023Z,4.90
2022-10-05T05:55:32.911Z,3.90
2022-10-05T06:01:02.801Z,4.15
2022-10-05T06:06:11.055Z,3.90
2022-10-05T06:11:43.771Z,4.75
2022-10-05T06:16:51.861Z,4.65
2022-10-05T06:22:01.052Z,5.05
2022-10-05T06:27:09.922Z,4.45
2022-10-05T06:32:33.385Z,6.50
2022-10-05T06:37:45.932Z,4.90
2022-10-05T06:43:24.047Z,4.10
2022-10-05T06:48:32.360Z,5.00
2022-10-05T06:53:48.073Z,4.40
2022-10-05T06:59:20.262Z,5.37
2022-10-05T07:04:47.140Z,4.57
2022-10-05T07:09:55.168Z,5.47
2022-10-05T07:15:16.499Z,6.07
2022-10-05T07:20:45.589Z,5.27
2022-10-05T07:26:31.416Z,6.03
2022-10-05T07:31:39.682Z,6.65
2022-10-05T07:37:06.208Z,5.40
2022-10-05T07:42:48.797Z,6.90
2022-10-05T07:47:59.794Z,5.03
2022-10-05T07:53:13.575Z,6.57
2022-10-05T07:58:19.568Z,6.97
2022-10-05T08:03:53.580Z,7.07
2022-10-05T08:09:21.637Z,6.93
2022-10-05T08:14:28.461Z,7.50
2022-10-05T08:19:47.409Z,7.30
2022-10-05T08:24:59.309Z,7.95
2022-10-05T08:30:13.282Z,7.40
2022-10-05T08:35:25.189Z,7.68
2022-10-05T08:40:54.547Z,8.25
2022-10-05T08:46:24.039Z,9.38
2022-10-05T08:51:49.664Z,8.85
2022-10-05T08:57:02.874Z,7.80
2022-10-05T09:02:25.858Z,9.70
2022-10-05T09:08:00.323Z,10.10
2022-10-05T09:13:28.977Z,9.20
2022-10-05T09:18:51.388Z,11.57
2022-10-05T09:24:12.210Z,9.02
2022-10-05T09:29:33.042Z,8.63
2022-10-05T09:35:11.666Z,7.78
2022-10-05T09:40:48.907Z,6.68
2022-10-05T09:46:18.236Z,6.00
2022-10-05T09:51:46.751Z,5.62
2022-10-05T09:57:04.040Z,6.60
2022-10-05T10:02:27.411Z,6.10
2022-10-05T10:13:10.785Z,5.85
2022-10-05T10:18:53.830Z,6.68
2022-10-05T10:24:14.641Z,6.28
2022-10-05T10:29:50.204Z,5.75
2022-10-05T10:35:37.431Z,5.10
2022-10-05T10:40:58.353Z,4.87
2022-10-05T10:46:18.475Z,5.87
2022-10-05T10:51:57.541Z,4.82
2022-10-05T10:57:25.421Z,3.37
2022-10-05T11:02:50.018Z,3.28
2022-10-05T11:08:16.435Z,2.62
2022-10-05T11:13:34.584Z,2.92
2022-10-05T11:18:52.485Z,2.97
2022-10-05T11:24:21.610Z,2.85
2022-10-05T11:29:51.301Z,2.87
2022-10-05T11:35:31.031Z,2.28
2022-10-05T11:41:02.094Z,2.12
2022-10-05T11:46:20.268Z,2.53
2022-10-05T11:51:34.449Z,2.08
2022-10-05T11:56:44.506Z,2.00
2022-10-05T12:01:55.815Z,2.50
2022-10-05T12:07:09.700Z,1.80
2022-10-05T12:12:26.916Z,1.55
2022-10-05T12:17:41.324Z,1.42
2022-10-05T12:23:22.226Z,1.77
2022-10-05T12:28:37.964Z,1.50
2022-10-05T12:33:44.833Z,1.58
2022-10-05T12:39:16.865Z,1.50
2022-10-05T12:44:18.865Z,1.50
2022-10-05T12:49:21.676Z,1.98
2022-10-05T12:54:44.651Z,1.52
2022-10-05T13:05:10.285Z,1.95
2022-10-05T13:10:17.530Z,2.05
2022-10-05T13:15:41.434Z,1.40
2022-10-05T13:21:02.796Z,1.77
2022-10-05T13:26:17.560Z,1.60
2022-10-05T13:31:28.603Z,1.65
2022-10-05T13:36:33.797Z,1.57
2022-10-05T13:41:39.120Z,1.55
2022-10-05T13:46:57.239Z,1.40
2022-10-05T13:52:08.760Z,1.42
2022-10-05T13:57:33.546Z,1.42
2022-10-05T14:02:42.080Z,1.30
2022-10-05T14:08:04.047Z,1.20
2022-10-05T14:13:23.560Z,1.35
2022-10-05T14:18:31.333Z,1.37
2022-10-05T14:23:34.034Z,1.92
2022-10-05T14:28:39.478Z,1.50
2022-10-05T14:33:41.956Z,1.35
2022-10-05T14:38:57.696Z,1.30
2022-10-05T14:44:05.758Z,0.98
2022-10-05T14:49:20.928Z,2.08
2022-10-05T14:54:55.518Z,1.25
2022-10-05T15:00:18.517Z,1.83
2022-10-05T15:05:35.153Z,1.30
2022-10-05T15:10:56.631Z,1.30
2022-10-05T15:16:17.476Z,1.40
2022-10-05T15:21:28.483Z,1.42
2022-10-05T15:26:51.605Z,1.70
2022-10-05T15:32:19.136Z,1.80
2022-10-05T15:37:31.852Z,1.30
2022-10-05T15:42:41.534Z,2.00
2022-10-05T15:48:01.537Z,1.40
2022-10-05T15:53:43.507Z,1.75
2022-10-05T15:58:53.363Z,1.30
2022-10-05T16:03:58.401Z,1.95
2022-10-05T16:09:09.329Z,1.83
2022-10-05T16:14:33.317Z,1.52
2022-10-05T16:19:52.655Z,2.33
2022-10-05T16:25:07.413Z,1.23
2022-10-05T16:30:18.190Z,1.62
2022-10-05T16:35:46.040Z,1.37
2022-10-05T16:41:01.896Z,1.20
2022-10-05T16:46:28.039Z,1.35
2022-10-05T16:51:59.052Z,1.37
2022-10-05T16:57:12.988Z,1.35
2022-10-05T17:02:33.654Z,1.60
2022-10-05T17:07:39.283Z,1.98
2022-10-05T17:13:17.122Z,1.25
2022-10-05T17:18:28.364Z,1.50
2022-10-05T17:23:33.652Z,2.05
2022-10-05T17:28:58.676Z,1.30
2022-10-05T17:34:16.525Z,1.33
2022-10-05T17:39:43.320Z,1.48
2022-10-05T17:44:45.390Z,4.82
2022-10-05T17:50:16.976Z,3.00
2022-10-05T17:55:34.168Z,4.20
2022-10-05T18:00:55.919Z,1.25
2022-10-05T18:06:25.875Z,3.47
2022-10-05T18:11:41.147Z,2.90
2022-10-05T18:17:11.745Z,7.70
2022-10-05T18:22:16.517Z,10.65
2022-10-05T18:27:31.794Z,3.08
2022-10-05T18:33:11.449Z,2.55
2022-10-05T18:38:26.887Z,2.37
2022-10-05T18:43:52.442Z,2.20
2022-10-05T18:49:19.360Z,2.25
2022-10-05T18:54:43.378Z,1.70
2022-10-05T19:00:00.903Z,2.03
2022-10-05T19:05:48.318Z,6.53
2022-10-05T19:10:55.550Z,6.72
2022-10-05T19:16:25.545Z,9.75
2022-10-05T19:21:35.434Z,7.37
2022-10-05T19:26:40.397Z,7.35
2022-10-05T19:32:00.982Z,5.30
2022-10-05T19:37:09.965Z,2.05
2022-10-05T19:42:28.520Z,3.15
2022-10-05T19:47:44.414Z,3.05
2022-10-05T19:52:51.356Z,1.25
2022-10-05T19:57:55.896Z,2.58
2022-10-05T20:03:23.288Z,4.43
2022-10-05T20:08:27.379Z,3.37
2022-10-05T20:13:33.385Z,3.28
2022-10-05T20:19:03.105Z,2.75
2022-10-05T20:24:08.525Z,4.22
2022-10-05T20:29:10.587Z,4.18
2022-10-05T20:34:13.071Z,3.92
2022-10-05T20:39:18.868Z,2.40
2022-10-05T20:44:20.915Z,1.50
2022-10-05T20:49:25.668Z,1.48
2022-10-05T20:54:27.838Z,1.25
2022-10-05T20:59:29.940Z,1.10
2022-10-05T21:04:40.845Z,1.52
2022-10-05T21:09:44.799Z,1.20
2022-10-05T21:14:47.403Z,12.63
2022-10-05T21:19:50.220Z,12.95
2022-10-05T21:24:52.299Z,4.50
2022-10-05T21:29:54.388Z,2.00
2022-10-05T21:34:57.191Z,2.45
2022-10-05T21:45:01.296Z,1.70
2022-10-05T21:50:05.196Z,2.25
2022-10-05T21:55:07.939Z,2.53
2022-10-05T22:05:12.691Z,2.28
2022-10-05T22:10:15.201Z,2.00
2022-10-05T22:15:17.875Z,1.55
2022-10-05T22:30:25.800Z,1.15
2022-10-05T22:35:27.915Z,1.95
2022-10-05T22:40:30.665Z,1.52
2022-10-05T22:45:32.982Z,1.27
2022-10-05T22:50:35.289Z,1.23
2022-10-05T22:55:37.709Z,1.08
2022-10-05T23:00:57.182Z,1.17
2022-10-05T23:06:03.547Z,1.58
2022-10-05T23:11:17.484Z,1.27
2022-10-05T23:16:22.809Z,1.55
2022-10-05T23:21:28.054Z,2.08
2022-10-05T23:26:31.072Z,1.65
2022-10-05T23:31:33.548Z,1.35
2022-10-05T23:36:35.937Z,1.23
2022-10-05T23:41:38.023Z,1.75
2022-10-05T23:46:40.157Z,1.40
2022-10-05T23:51:42.408Z,1.27
2022-10-05T23:56:44.437Z,1.50
